Brevard, NC (28712)

12:11 AM EST on February 11, 2016 (GMT -0500)
Connestee Fire Walnut Hollow Station | | Change Station
CLOSE
Current Station
Personal Weather Station
Location: Brevard, NC
Elevation: 2543 ft
Nearby Weather Stations
Active Advisory: Wind Chill Advisory

Elev 2543 ft 35.15 °N, 82.77 °W | Updated 10 seconds ago

Clear
Clear
18.1 °F
Feels Like 18 °F
N
0.0
Wind Variable Wind from West
Gusts 11.0 mph

Today
High -- | Low -- °F
--% Chance of Precip.
Yesterday
High -- | Low -- °F
Precip. -- in
Pressure 30.08 in
Visibility 10.0 miles
Clouds Clear
Windchill 18 °F
Dew Point 8 °F
Humidity 63%
Rainfall 0.00 in
Snow Depth Not available.
7:21 AM 6:09 PM
Waxing Crescent, 9% visible
METAR KAVL 110454Z AUTO 34012KT 10SM CLR M06/M17 A3002 RMK AO2 SLP185 T10611172 410221089
Pressure 30.08 in
Visibility 10.0 miles
Clouds Clear
Windchill 18 °F
Dew Point 8 °F
Humidity 63%
Rainfall 0.00 in
Snow Depth Not available.
7:21 AM 6:09 PM
Waxing Crescent, 9% visible
METAR KAVL 110454Z AUTO 34012KT 10SM CLR M06/M17 A3002 RMK AO2 SLP185 T10611172 410221089

10-Day Weather Forecast

Almanac

Astronomy

Feb. 11, 2016 Rise Set
Actual Time
Civil Twilight
Nautical Twilight
Astronomical Twilight
Moon
Length of Visible Light
Length of Day
Tomorrow will be .
, % of the Moon is Illuminated

Today's Extremes

State Highs State Lows

Community

WunderPhotos

Upload Photos

1,892,023 photos uploaded!

WunderBlog® & News

Nearby

Air Quality

  Air Quality AQ Index Pollutant
Not available.

Snow Depth

Station Depth Elevation

Earthquake Activity

City Distance Mag. Time & Date
Minimum magnitude displayed is 2.5.

Coastal Water Temperatures

Place Temperature

Stations

Nearby Weather Stations

Station Location Temp. Windchill Dew Point Humidity Wind Precip. Elev Updated Type
                   

Watches & Warnings

Wind Chill Advisory
Issued: 7:08 PM EST Feb. 10, 2016 – National Weather Service

... Wind Chill Advisory remains in effect until 10 am EST Thursday
above 3500 feet...

* locations... the central and southern North Carolina mountains.

* Impacts... wind chill values colder than 5 degrees below zero
will make it dangerous to be outside across the high
elevations Thursday morning.

* Winds... northwest 10 to 20 mph with gusts up to 35 mph.

* Wind chill values... as low as 6 below due to temperatures 13 to
22... and winds northwest 10 to 20 mph with gusts up to 35 mph.

Precautionary/preparedness actions...

A Wind Chill Advisory means that very cold air and strong winds
will combine to generate low wind chills. This will result in
frost bite and lead to hypothermia if precautions are not taken.
If you must venture outdoors... make sure you wear a hat and
gloves.

Stay tuned to NOAA Weather Radio or your favorite source of
weather information for the latest updates. Additional details
can be found at www.Weather.Gov/gsp.



Ned